createdAt,value
2023-04-12T00:00:00.248Z,82.2
2023-04-12T00:05:00.408Z,82.5
2023-04-12T00:10:00.261Z,82.9
2023-04-12T00:15:00.289Z,82.3
2023-04-12T00:20:00.350Z,82.9
2023-04-12T00:25:00.294Z,82.9
2023-04-12T00:30:00.609Z,83.1
2023-04-12T00:35:00.252Z,82.6
2023-04-12T00:40:00.286Z,82.9
2023-04-12T00:45:00.293Z,83.1
2023-04-12T00:50:00.322Z,83.3
2023-04-12T00:55:00.249Z,82.5
2023-04-12T01:00:00.304Z,82.2
2023-04-12T01:05:00.287Z,82.1
2023-04-12T01:10:00.294Z,82.2
2023-04-12T01:15:00.252Z,81.6
2023-04-12T01:20:00.282Z,81.1
2023-04-12T01:25:00.287Z,80.9
2023-04-12T01:30:00.317Z,81.0
2023-04-12T01:35:00.237Z,81.0
2023-04-12T01:40:00.423Z,81.4
2023-04-12T01:45:00.248Z,80.8
2023-04-12T01:50:00.293Z,80.8
2023-04-12T01:55:00.283Z,79.8
2023-04-12T02:00:00.301Z,80.5
2023-04-12T02:05:00.248Z,80.9
2023-04-12T02:10:00.307Z,80.0
2023-04-12T02:15:00.287Z,80.3
2023-04-12T02:20:00.291Z,80.5
2023-04-12T02:25:00.285Z,80.3
2023-04-12T02:30:00.276Z,80.0
2023-04-12T02:35:00.252Z,80.2
2023-04-12T02:40:00.294Z,79.5
2023-04-12T02:45:00.283Z,80.0
2023-04-12T02:50:00.278Z,79.2
2023-04-12T02:55:00.248Z,79.4
2023-04-12T03:00:00.290Z,79.2
2023-04-12T03:05:00.247Z,78.4
2023-04-12T03:10:00.268Z,78.3
2023-04-12T03:15:00.299Z,77.8
2023-04-12T03:20:00.275Z,78.1
2023-04-12T03:25:00.228Z,77.7
2023-04-12T03:30:00.657Z,78.0
2023-04-12T03:35:00.263Z,78.0
2023-04-12T03:40:00.321Z,78.2
2023-04-12T03:45:00.232Z,77.5
2023-04-12T03:50:11.124Z,78.1
2023-04-12T03:55:00.287Z,77.0
2023-04-12T04:00:00.289Z,77.2
2023-04-12T04:05:00.288Z,77.8
2023-04-12T04:10:00.285Z,77.2
2023-04-12T04:15:00.271Z,77.1
2023-04-12T04:20:00.268Z,77.1
2023-04-12T04:25:00.286Z,76.3
2023-04-12T04:30:00.298Z,75.7
2023-04-12T04:35:00.291Z,76.0
2023-04-12T04:40:00.236Z,76.2
2023-04-12T04:45:00.300Z,75.3
2023-04-12T04:50:00.254Z,76.2
2023-04-12T04:55:00.305Z,76.1
2023-04-12T05:00:00.294Z,75.4
2023-04-12T05:05:00.283Z,74.9
2023-04-12T05:10:00.246Z,75.1
2023-04-12T05:15:11.036Z,74.9
2023-04-12T05:20:00.305Z,75.1
2023-04-12T05:25:00.236Z,74.9
2023-04-12T05:30:00.371Z,74.8
2023-04-12T05:35:00.292Z,74.0
2023-04-12T05:40:00.290Z,74.0
2023-04-12T05:45:00.251Z,73.8
2023-04-12T05:50:00.282Z,73.5
2023-04-12T05:55:00.326Z,73.4
2023-04-12T06:00:00.304Z,73.5
2023-04-12T06:05:00.565Z,73.2
2023-04-12T06:10:00.289Z,73.0
2023-04-12T06:15:00.265Z,71.4
2023-04-12T06:20:00.289Z,71.2
2023-04-12T06:25:00.299Z,70.5
2023-04-12T06:30:00.291Z,70.5
2023-04-12T06:35:00.262Z,70.5
2023-04-12T06:40:00.275Z,70.0
2023-04-12T06:45:00.289Z,70.8
2023-04-12T06:50:00.294Z,70.6
2023-04-12T06:55:00.268Z,69.0
2023-04-12T07:00:00.448Z,68.7
2023-04-12T07:05:00.274Z,69.1
2023-04-12T07:10:00.286Z,67.1
2023-04-12T07:15:00.253Z,66.6
2023-04-12T07:20:00.292Z,65.6
2023-04-12T07:25:00.294Z,65.9
2023-04-12T07:30:00.264Z,63.6
2023-04-12T07:35:00.294Z,67.1
2023-04-12T07:40:00.388Z,65.5
2023-04-12T07:45:00.269Z,64.7
2023-04-12T07:50:00.256Z,63.9
2023-04-12T07:55:00.307Z,63.6
2023-04-12T08:00:00.264Z,63.8
2023-04-12T08:05:00.320Z,65.6
2023-04-12T08:10:00.285Z,63.7
2023-04-12T08:15:00.292Z,63.1
2023-04-12T08:20:00.241Z,63.1
2023-04-12T08:25:00.312Z,61.9
2023-04-12T08:30:00.294Z,61.6
2023-04-12T08:35:00.283Z,62.3
2023-04-12T08:40:00.245Z,61.2
2023-04-12T08:45:00.347Z,61.1
2023-04-12T08:50:00.297Z,60.2
2023-04-12T08:55:00.292Z,60.6
2023-04-12T09:00:00.253Z,61.3
2023-04-12T09:05:00.453Z,59.2
2023-04-12T09:10:00.307Z,59.1
2023-04-12T09:15:00.287Z,60.1
2023-04-12T09:20:00.243Z,60.6
2023-04-12T09:25:00.285Z,59.5
2023-04-12T09:30:00.324Z,59.8
2023-04-12T09:35:00.285Z,59.7
2023-04-12T09:40:00.286Z,60.0
2023-04-12T09:45:00.567Z,59.1
2023-04-12T09:50:00.246Z,63.5
2023-04-12T09:55:00.312Z,60.6
2023-04-12T10:00:00.329Z,60.6
2023-04-12T10:05:00.502Z,61.7
2023-04-12T10:10:00.264Z,59.1
2023-04-12T10:15:00.336Z,58.7
2023-04-12T10:20:00.290Z,58.5
2023-04-12T10:25:00.269Z,58.4
2023-04-12T10:30:00.275Z,57.4
2023-04-12T10:35:00.312Z,58.0
2023-04-12T10:40:00.282Z,59.4
2023-04-12T10:45:01.213Z,61.5
2023-04-12T10:50:00.301Z,61.5
2023-04-12T10:55:01.062Z,63.4
2023-04-12T11:00:00.300Z,64.4
2023-04-12T11:05:00.322Z,65.2
2023-04-12T11:10:00.330Z,66.2
2023-04-12T11:15:00.374Z,67.1
2023-04-12T11:20:00.248Z,67.1
2023-04-12T11:25:00.473Z,68.0
2023-04-12T11:30:00.283Z,69.1
2023-04-12T11:35:00.288Z,71.2
2023-04-12T11:40:00.272Z,72.6
2023-04-12T11:45:04.756Z,73.5
2023-04-12T11:50:00.281Z,74.0
2023-04-12T11:55:00.279Z,75.0
2023-04-12T12:00:00.514Z,76.1
2023-04-12T12:05:00.406Z,76.3
2023-04-12T12:10:00.260Z,77.8
2023-04-12T12:15:00.285Z,78.0
2023-04-12T12:20:00.277Z,78.3
2023-04-12T12:25:00.285Z,79.1
2023-04-12T12:30:00.248Z,79.9
2023-04-12T12:35:01.549Z,79.8
2023-04-12T12:40:00.265Z,80.3
2023-04-12T12:45:00.295Z,80.5
2023-04-12T12:50:00.300Z,80.5
2023-04-12T12:55:00.286Z,81.4
2023-04-12T13:00:00.245Z,82.2
2023-04-12T13:05:00.318Z,81.7
2023-04-12T13:10:00.266Z,82.1
2023-04-12T13:15:13.317Z,83.1
2023-04-12T13:20:00.252Z,82.7
2023-04-12T13:25:00.287Z,82.6
2023-04-12T13:30:00.280Z,81.9
2023-04-12T13:35:00.314Z,82.3
2023-04-12T13:40:00.312Z,81.8
2023-04-12T13:45:00.314Z,82.2
2023-04-12T13:50:00.244Z,82.3
2023-04-12T13:55:00.292Z,83.1
2023-04-12T14:00:00.274Z,83.4
2023-04-12T14:05:00.565Z,83.7
2023-04-12T14:10:00.255Z,83.5
2023-04-12T14:15:00.294Z,83.5
2023-04-12T14:20:00.301Z,82.9
2023-04-12T14:25:00.286Z,83.6
2023-04-12T14:30:00.256Z,84.0
2023-04-12T14:35:00.303Z,84.7
2023-04-12T14:40:00.302Z,85.1
2023-04-12T14:45:00.302Z,85.3
2023-04-12T14:50:00.259Z,85.0
2023-04-12T14:55:00.306Z,85.4
2023-04-12T15:00:00.256Z,85.4
2023-04-12T15:05:00.458Z,85.8
2023-04-12T15:10:00.297Z,84.8
2023-04-12T15:15:00.312Z,85.0
2023-04-12T15:20:00.339Z,84.5
2023-04-12T15:25:00.317Z,85.0
2023-04-12T15:30:00.349Z,84.7
2023-04-12T15:35:02.781Z,84.4
2023-04-12T15:40:00.327Z,84.0
2023-04-12T15:45:00.328Z,84.0
2023-04-12T15:50:00.258Z,84.3
2023-04-12T15:55:00.283Z,84.0
2023-04-12T16:00:00.284Z,83.7
2023-04-12T16:05:00.378Z,83.5
2023-04-12T16:10:00.266Z,82.9
2023-04-12T16:15:00.294Z,83.4
2023-04-12T16:20:00.321Z,83.6
2023-04-12T16:25:00.298Z,83.2
2023-04-12T16:30:00.310Z,83.1
2023-04-12T16:35:00.297Z,83.0
2023-04-12T16:40:00.275Z,83.1
2023-04-12T16:45:00.278Z,83.0
2023-04-12T16:50:00.308Z,82.7
2023-04-12T16:55:00.298Z,82.8
2023-04-12T17:00:00.333Z,83.1
2023-04-12T17:05:00.267Z,83.6
2023-04-12T17:10:00.309Z,83.0
2023-04-12T17:15:00.271Z,83.2
2023-04-12T17:20:00.299Z,83.4
2023-04-12T17:25:00.327Z,83.2
2023-04-12T17:30:00.323Z,83.6
2023-04-12T17:35:00.256Z,82.9
2023-04-12T17:40:00.313Z,82.7
2023-04-12T17:45:00.264Z,82.7
2023-04-12T17:50:00.336Z,82.7
2023-04-12T17:55:00.307Z,83.1
2023-04-12T18:00:00.311Z,82.8
2023-04-12T18:05:00.256Z,82.8
2023-04-12T18:10:00.287Z,82.9
2023-04-12T18:15:00.308Z,83.5
2023-04-12T18:20:02.577Z,83.3
2023-04-12T18:25:00.240Z,83.5
2023-04-12T18:30:00.289Z,83.5
2023-04-12T18:35:00.231Z,83.4
2023-04-12T18:40:00.287Z,84.4
2023-04-12T18:45:00.285Z,85.4
2023-04-12T18:50:00.305Z,86.0
2023-04-12T18:55:00.268Z,85.2
2023-04-12T19:00:00.346Z,85.7
2023-04-12T19:05:00.285Z,85.8
2023-04-12T19:10:00.306Z,85.4
2023-04-12T19:15:00.242Z,85.0
2023-04-12T19:20:00.311Z,84.9
2023-04-12T19:25:00.298Z,85.1
2023-04-12T19:30:00.308Z,85.4
2023-04-12T19:35:00.276Z,84.7
2023-04-12T19:40:00.345Z,81.5
2023-04-12T19:45:00.252Z,81.5
2023-04-12T19:50:00.291Z,81.3
2023-04-12T19:55:01.953Z,81.1
2023-04-12T20:00:00.333Z,81.4
2023-04-12T20:05:00.251Z,81.1
2023-04-12T20:10:00.290Z,81.6
2023-04-12T20:15:00.285Z,81.3
2023-04-12T20:20:00.307Z,82.9
2023-04-12T20:25:00.256Z,82.1
2023-04-12T20:30:00.319Z,79.8
2023-04-12T20:35:00.293Z,78.2
2023-04-12T20:40:00.276Z,78.1
2023-04-12T20:45:00.240Z,78.1
2023-04-12T20:50:00.287Z,78.7
2023-04-12T20:55:00.236Z,80.5
2023-04-12T21:00:00.263Z,81.0
2023-04-12T21:05:00.267Z,81.8
2023-04-12T21:10:00.290Z,80.9
2023-04-12T21:15:00.250Z,81.7
2023-04-12T21:20:00.292Z,81.6
2023-04-12T21:25:00.286Z,81.0
2023-04-12T21:30:00.306Z,80.3
2023-04-12T21:35:00.277Z,80.6
2023-04-12T21:40:00.303Z,79.6
2023-04-12T21:45:00.299Z,79.4
2023-04-12T21:50:00.309Z,79.8
2023-04-12T21:55:00.265Z,79.6
2023-04-12T22:00:00.294Z,79.6
2023-04-12T22:05:00.264Z,79.2
2023-04-12T22:10:00.283Z,79.2
2023-04-12T22:15:00.285Z,78.6
2023-04-12T22:20:00.323Z,78.7
2023-04-12T22:25:00.282Z,78.5
2023-04-12T22:30:00.304Z,78.4
2023-04-12T22:35:08.407Z,78.4
2023-04-12T22:40:00.295Z,78.1
2023-04-12T22:45:00.275Z,77.8
2023-04-12T22:50:00.291Z,77.5
2023-04-12T22:55:00.302Z,77.6
2023-04-12T23:00:00.291Z,77.5
2023-04-12T23:05:00.333Z,78.0
2023-04-12T23:10:00.289Z,77.8
2023-04-12T23:15:00.256Z,78.1
2023-04-12T23:20:00.290Z,77.8
2023-04-12T23:25:00.320Z,77.7
2023-04-12T23:30:00.281Z,77.8
2023-04-12T23:35:00.267Z,77.5
2023-04-12T23:40:00.282Z,77.4
2023-04-12T23:45:00.301Z,78.1
2023-04-12T23:50:00.627Z,78.4
2023-04-12T23:55:00.308Z,79.0
